Time;durP1;ratioP1;P1;durP2;ratioP2;P2;SDS_P1;SDS_P2;PMS_P1;PMS_P2;Temp;Humidity;BMP_temperature;BMP_pressure;BME280_temperature;BME280_humidity;BME280_pressure;Samples;Min_cycle;Max_cycle;Signal;HPM_P1;HPM_P2
2022/09/07 00:01:04;;;;;;;2.95;1.95;;;19.20;99.90;;;;;;5092399;28;20212;-53
2022/09/07 00:03:32;;;;;;;1.98;1.80;;;19.20;99.90;;;;;;5091768;28;20196;-52
2022/09/07 00:06:06;;;;;;;3.50;2.10;;;19.20;99.90;;;;;;5091673;28;20952;-53
2022/09/07 00:08:35;;;;;;;2.10;1.90;;;19.20;99.90;;;;;;5092138;28;20305;-53
2022/09/07 00:11:05;;;;;;;1.95;1.75;;;19.20;99.90;;;;;;5090801;28;20201;-53
2022/09/07 00:13:36;;;;;;;2.47;2.08;;;19.20;99.90;;;;;;5091874;28;20317;-53
2022/09/07 00:16:05;;;;;;;2.28;1.90;;;19.20;99.90;;;;;;5091566;28;20228;-53
2022/09/07 00:18:33;;;;;;;2.97;2.05;;;19.20;99.90;;;;;;5091628;28;20294;-53
2022/09/07 00:21:04;;;;;;;4.63;2.03;;;19.20;99.90;;;;;;5077362;28;20265;-53
2022/09/07 00:23:33;;;;;;;3.58;2.00;;;19.20;99.90;;;;;;5091564;28;20201;-53
2022/09/07 00:26:04;;;;;;;5.22;2.00;;;19.10;99.90;;;;;;5091667;28;20254;-53
2022/09/07 00:28:32;;;;;;;1.92;1.83;;;19.10;99.90;;;;;;5091621;28;20204;-53
2022/09/07 00:31:02;;;;;;;2.15;1.70;;;19.10;99.90;;;;;;5091624;28;20261;-52
2022/09/07 00:33:30;;;;;;;4.05;2.08;;;19.10;99.90;;;;;;5091225;28;20228;-53
2022/09/07 00:35:59;;;;;;;2.90;1.90;;;19.10;99.90;;;;;;5091182;28;20258;-53
2022/09/07 00:38:27;;;;;;;2.75;1.90;;;19.10;99.90;;;;;;5091168;28;20204;-52
2022/09/07 00:40:55;;;;;;;2.28;1.73;;;19.10;99.90;;;;;;5091537;28;20211;-53
2022/09/07 00:43:31;;;;;;;2.20;2.00;;;19.10;99.90;;;;;;5090902;28;20197;-53
2022/09/07 00:45:59;;;;;;;3.65;2.13;;;19.10;99.90;;;;;;5091189;28;20236;-53
2022/09/07 00:48:33;;;;;;;3.35;1.70;;;19.00;99.90;;;;;;5090984;28;20208;-52
2022/09/07 00:51:04;;;;;;;2.75;1.92;;;18.90;99.90;;;;;;5091713;28;20255;-53
2022/09/07 00:53:37;;;;;;;2.05;1.83;;;18.90;99.90;;;;;;5090876;28;20269;-53
2022/09/07 00:56:06;;;;;;;2.42;1.95;;;18.90;99.90;;;;;;5091047;28;20228;-53
2022/09/07 00:58:36;;;;;;;2.70;1.80;;;18.90;99.90;;;;;;5091129;28;20257;-53
2022/09/07 01:01:05;;;;;;;2.00;1.90;;;18.90;99.90;;;;;;5090627;28;20208;-53
2022/09/07 01:03:38;;;;;;;4.20;2.20;;;18.90;99.90;;;;;;5090752;28;20266;-53
2022/09/07 01:06:12;;;;;;;4.07;1.70;;;18.90;99.90;;;;;;5090887;28;21082;-53
2022/09/07 01:08:41;;;;;;;2.85;1.77;;;18.90;99.90;;;;;;5091034;28;20258;-53
2022/09/07 01:11:10;;;;;;;2.03;1.70;;;18.90;99.90;;;;;;5090911;28;20297;-52
2022/09/07 01:13:39;;;;;;;2.03;1.83;;;18.90;99.90;;;;;;5090781;28;20220;-53
2022/09/07 01:16:17;;;;;;;2.42;2.00;;;18.90;99.90;;;;;;5091061;28;20254;-53
2022/09/07 01:18:57;;;;;;;1.92;1.70;;;18.90;99.90;;;;;;5090784;28;20212;-52
2022/09/07 01:21:33;;;;;;;1.80;1.70;;;18.90;99.90;;;;;;5077383;28;20204;-53
2022/09/07 01:24:29;;;;;;;2.10;1.90;;;18.90;99.90;;;;;;5090025;28;20669;-53
2022/09/07 01:27:15;;;;;;;2.50;1.80;;;18.90;99.90;;;;;;5090536;28;20236;-53
2022/09/07 01:29:54;;;;;;;1.95;1.75;;;18.90;99.90;;;;;;5090110;28;20212;-53
2022/09/07 01:32:28;;;;;;;2.70;1.85;;;18.90;99.90;;;;;;5090058;28;20578;-53
2022/09/07 01:34:57;;;;;;;3.15;1.95;;;18.90;99.90;;;;;;5089405;28;20625;-52
2022/09/07 01:37:31;;;;;;;2.72;1.90;;;18.90;99.90;;;;;;5090301;28;20762;-53
2022/09/07 01:40:07;;;;;;;2.35;1.40;;;18.90;99.90;;;;;;5089970;28;20252;-53
2022/09/07 01:42:44;;;;;;;2.72;1.73;;;18.90;99.90;;;;;;5089914;28;20210;-54
2022/09/07 01:45:17;;;;;;;2.35;1.73;;;18.90;99.90;;;;;;5089701;28;20196;-53
2022/09/07 01:47:48;;;;;;;2.10;1.88;;;18.90;99.90;;;;;;5089916;28;20200;-53
2022/09/07 01:50:20;;;;;;;3.60;1.70;;;18.90;99.90;;;;;;5089676;28;20204;-53
2022/09/07 01:52:54;;;;;;;1.67;1.58;;;18.90;99.90;;;;;;5090038;28;20220;-53
2022/09/07 01:55:28;;;;;;;2.28;1.52;;;18.90;99.90;;;;;;5089872;28;20231;-53
2022/09/07 01:58:00;;;;;;;3.15;2.10;;;18.80;99.90;;;;;;5089233;28;20657;-53
2022/09/07 02:00:31;;;;;;;2.00;1.80;;;18.80;99.90;;;;;;5089654;28;20738;-53
2022/09/07 02:03:04;;;;;;;2.53;2.25;;;18.90;99.90;;;;;;5089350;28;20208;-53
2022/09/07 02:05:35;;;;;;;3.20;2.72;;;18.70;99.90;;;;;;5088721;28;20216;-53
2022/09/07 02:08:11;;;;;;;4.30;2.30;;;18.70;99.90;;;;;;5089697;28;20234;-53
2022/09/07 02:10:44;;;;;;;5.65;2.72;;;18.70;99.90;;;;;;5089479;28;20204;-53
2022/09/07 02:13:16;;;;;;;3.42;2.90;;;18.80;99.90;;;;;;5089148;28;20224;-53
2022/09/07 02:15:51;;;;;;;4.63;2.65;;;19.00;99.90;;;;;;5089548;28;20235;-52
2022/09/07 02:18:21;;;;;;;4.82;2.63;;;19.00;99.90;;;;;;5089902;28;20206;-53
2022/09/07 02:20:53;;;;;;;5.10;2.72;;;19.10;99.90;;;;;;5075264;28;20208;-53
2022/09/07 02:23:25;;;;;;;7.63;2.90;;;19.20;99.90;;;;;;5089440;28;20674;-53
2022/09/07 02:26:00;;;;;;;5.35;2.53;;;19.30;99.90;;;;;;5088617;28;20244;-53
2022/09/07 02:28:32;;;;;;;6.68;2.35;;;19.30;99.90;;;;;;5089846;28;20199;-53
2022/09/07 02:31:02;;;;;;;6.25;2.83;;;19.30;99.90;;;;;;5088984;28;20208;-53
2022/09/07 02:33:30;;;;;;;5.95;3.05;;;19.40;99.90;;;;;;5088804;28;20273;-53
2022/09/07 02:35:59;;;;;;;8.77;3.20;;;19.30;99.90;;;;;;5088780;28;20240;-53
2022/09/07 02:38:28;;;;;;;5.80;3.05;;;19.30;99.90;;;;;;5089810;28;20227;-53
2022/09/07 02:40:58;;;;;;;5.55;2.83;;;19.20;99.90;;;;;;5088648;28;20204;-53
2022/09/07 02:43:27;;;;;;;7.03;2.70;;;19.20;99.90;;;;;;5075342;28;20616;-52
2022/09/07 02:46:18;;;;;;;14.52;3.10;;;19.10;99.90;;;;;;5089461;28;20228;-52
2022/09/07 02:48:57;;;;;;;5.32;2.72;;;19.10;99.90;;;;;;5076878;28;20204;-53
2022/09/07 02:51:32;;;;;;;6.72;3.38;;;19.00;99.90;;;;;;5089475;28;20253;-51
2022/09/07 02:54:20;;;;;;;7.38;3.58;;;18.90;99.90;;;;;;5084670;28;20216;-53
2022/09/07 02:56:59;;;;;;;4.35;3.13;;;18.90;99.90;;;;;;5068695;28;20794;-53
2022/09/07 02:59:41;;;;;;;9.48;3.25;;;18.90;99.90;;;;;;5072130;28;20573;-53
2022/09/07 03:02:18;;;;;;;7.60;3.63;;;18.90;99.90;;;;;;5084965;28;20201;-53
2022/09/07 03:04:50;;;;;;;9.15;3.63;;;18.70;99.90;;;;;;5080771;28;20196;-53
2022/09/07 03:07:23;;;;;;;6.53;3.35;;;18.60;99.90;;;;;;5089193;28;20717;-53
2022/09/07 03:09:54;;;;;;;8.48;3.55;;;18.60;99.90;;;;;;5088685;28;20689;-53
2022/09/07 03:12:22;;;;;;;5.03;3.10;;;18.40;99.90;;;;;;5074427;28;20231;-53
2022/09/07 03:14:50;;;;;;;5.03;3.30;;;18.30;99.90;;;;;;5088776;28;20232;-53
2022/09/07 03:17:19;;;;;;;5.82;3.15;;;18.20;99.90;;;;;;5090404;28;20630;-53
2022/09/07 03:19:47;;;;;;;6.65;3.90;;;18.20;99.90;;;;;;5092641;28;20208;-53
2022/09/07 03:22:15;;;;;;;3.08;2.83;;;18.10;99.90;;;;;;5092733;28;20204;-53
2022/09/07 03:24:43;;;;;;;4.68;3.45;;;18.20;99.90;;;;;;5092917;28;20261;-53
2022/09/07 03:27:11;;;;;;;3.83;3.00;;;18.00;99.90;;;;;;5092363;28;20228;-53
2022/09/07 03:29:39;;;;;;;4.13;2.78;;;18.00;99.90;;;;;;5090156;28;20661;-53
2022/09/07 03:32:09;;;;;;;7.95;3.28;;;18.00;99.90;;;;;;5092452;28;20300;-53
2022/09/07 03:34:38;;;;;;;5.93;3.45;;;18.00;99.90;;;;;;5091913;28;20286;-53
2022/09/07 03:37:06;;;;;;;3.60;2.75;;;17.90;99.90;;;;;;5092587;28;20289;-52
2022/09/07 03:39:35;;;;;;;4.18;3.10;;;17.80;99.90;;;;;;5092245;28;20250;-53
2022/09/07 03:42:03;;;;;;;4.93;3.25;;;17.80;99.90;;;;;;5092599;28;20291;-53
2022/09/07 03:44:31;;;;;;;4.70;3.15;;;17.80;99.90;;;;;;5091926;28;20197;-53
2022/09/07 03:46:59;;;;;;;3.45;3.10;;;17.80;99.90;;;;;;5092655;28;20273;-53
2022/09/07 03:49:27;;;;;;;4.15;2.72;;;17.90;99.90;;;;;;5091695;28;20204;-53
2022/09/07 03:51:57;;;;;;;4.07;2.85;;;17.90;99.90;;;;;;5092366;28;20204;-53
2022/09/07 03:54:25;;;;;;;4.95;3.10;;;17.80;99.90;;;;;;5092419;28;20220;-53
2022/09/07 03:56:53;;;;;;;4.47;2.90;;;18.00;99.90;;;;;;5078181;28;20289;-54
2022/09/07 03:59:21;;;;;;;2.83;2.63;;;17.90;99.90;;;;;;5092603;28;20265;-53
2022/09/07 04:01:49;;;;;;;2.90;2.53;;;17.90;99.90;;;;;;5088118;28;20266;-53
2022/09/07 04:04:17;;;;;;;4.55;3.20;;;17.90;99.90;;;;;;5082246;28;20669;-53
2022/09/07 04:06:45;;;;;;;2.95;2.65;;;17.90;99.90;;;;;;5091881;28;20285;-54
2022/09/07 04:09:15;;;;;;;3.13;2.58;;;17.90;99.90;;;;;;5092403;28;20209;-53
2022/09/07 04:11:43;;;;;;;3.92;2.53;;;17.90;99.90;;;;;;5091229;28;20204;-52
2022/09/07 04:14:11;;;;;;;4.38;2.90;;;18.00;99.90;;;;;;5092146;28;20268;-53
2022/09/07 04:16:40;;;;;;;3.05;2.75;;;18.00;99.90;;;;;;5091843;28;20277;-53
2022/09/07 04:19:08;;;;;;;4.55;2.80;;;17.90;99.90;;;;;;5091293;28;20204;-53
2022/09/07 04:21:37;;;;;;;5.10;3.08;;;17.90;99.90;;;;;;5092035;28;20205;-53
2022/09/07 04:24:05;;;;;;;4.13;3.40;;;17.90;99.90;;;;;;5091192;28;20193;-53
2022/09/07 04:26:35;;;;;;;3.42;2.78;;;17.90;99.90;;;;;;5091168;28;20231;-52
2022/09/07 04:29:05;;;;;;;3.70;2.60;;;17.90;99.90;;;;;;5091065;28;20205;-53
2022/09/07 04:31:34;;;;;;;4.90;3.40;;;17.90;99.90;;;;;;5091095;28;20246;-52
2022/09/07 04:34:02;;;;;;;6.88;2.90;;;18.00;99.90;;;;;;5091624;28;20228;-52
2022/09/07 04:36:30;;;;;;;3.90;3.30;;;18.00;99.90;;;;;;5091566;28;20228;-52
2022/09/07 04:39:00;;;;;;;4.53;3.38;;;18.00;99.90;;;;;;5091510;28;20208;-53
2022/09/07 04:41:30;;;;;;;4.38;3.75;;;18.00;99.90;;;;;;5093791;28;20253;-53
2022/09/07 04:44:02;;;;;;;7.90;3.80;;;17.90;99.90;;;;;;5100628;28;20677;-53
2022/09/07 04:46:33;;;;;;;5.25;4.20;;;17.90;99.90;;;;;;5107208;28;20731;-53
2022/09/07 04:49:04;;;;;;;5.20;4.70;;;17.80;99.90;;;;;;5114046;28;20208;-53
2022/09/07 04:51:32;;;;;;;5.60;4.45;;;17.70;99.90;;;;;;5112043;28;20256;-54
2022/09/07 04:54:02;;;;;;;5.75;4.22;;;17.60;99.90;;;;;;5111401;28;20219;-53
2022/09/07 04:56:31;;;;;;;4.45;4.05;;;17.50;99.90;;;;;;5111561;28;20223;-52
2022/09/07 04:59:02;;;;;;;7.07;4.20;;;17.40;99.90;;;;;;5103045;28;20705;-53
2022/09/07 05:01:30;;;;;;;4.35;3.83;;;17.40;99.90;;;;;;5091036;28;20212;-52
2022/09/07 05:04:00;;;;;;;5.07;4.63;;;17.40;99.90;;;;;;5090654;28;20647;-57
2022/09/07 05:06:29;;;;;;;4.50;4.07;;;17.40;99.90;;;;;;5090509;28;20228;-52
2022/09/07 05:08:58;;;;;;;4.68;4.20;;;17.40;99.90;;;;;;5090619;28;20262;-52
2022/09/07 05:11:27;;;;;;;6.75;4.20;;;17.40;99.90;;;;;;5090552;28;20273;-52
2022/09/07 05:13:57;;;;;;;5.15;4.68;;;17.50;99.90;;;;;;5090545;28;20338;-51
2022/09/07 05:16:27;;;;;;;4.78;4.28;;;17.50;99.90;;;;;;5098428;28;20310;-53
2022/09/07 05:18:57;;;;;;;7.22;5.07;;;17.60;99.90;;;;;;5108600;28;20257;-53
2022/09/07 05:21:27;;;;;;;5.28;4.70;;;17.50;99.90;;;;;;5110456;28;20737;-53
2022/09/07 05:23:56;;;;;;;7.28;4.65;;;17.60;99.90;;;;;;5110984;28;20676;-53
2022/09/07 05:26:26;;;;;;;5.10;4.60;;;17.60;99.90;;;;;;5110249;28;20899;-53
2022/09/07 05:28:55;;;;;;;5.82;4.57;;;17.60;99.90;;;;;;5099579;28;20673;-53
2022/09/07 05:31:44;;;;;;;5.00;4.53;;;17.70;99.90;;;;;;5087609;28;20314;-53
2022/09/07 05:34:13;;;;;;;5.70;4.95;;;17.70;99.90;;;;;;5098932;28;20256;-51
2022/09/07 05:36:58;;;;;;;6.85;4.40;;;17.70;99.90;;;;;;5099790;28;20231;-51
2022/09/07 05:39:26;;;;;;;4.97;4.50;;;17.80;99.90;;;;;;5090154;28;20204;-53
2022/09/07 05:41:55;;;;;;;5.10;4.53;;;17.80;99.90;;;;;;5098818;28;20588;-53
2022/09/07 05:44:23;;;;;;;6.55;4.78;;;17.90;99.90;;;;;;5110490;28;20261;-53
2022/09/07 05:47:13;;;;;;;7.90;4.78;;;17.90;99.90;;;;;;5110822;28;20227;-51
2022/09/07 05:49:41;;;;;;;7.07;5.47;;;18.00;99.90;;;;;;5109930;28;20199;-52
2022/09/07 05:52:09;;;;;;;6.82;5.03;;;18.00;99.90;;;;;;5110440;28;20214;-52
2022/09/07 05:54:37;;;;;;;5.57;4.57;;;18.10;99.90;;;;;;5105291;28;20707;-53
2022/09/07 05:57:06;;;;;;;5.88;4.72;;;18.20;99.90;;;;;;5097345;28;20272;-52
2022/09/07 05:59:34;;;;;;;4.93;4.30;;;18.20;99.90;;;;;;5106953;28;20253;-52
2022/09/07 06:02:03;;;;;;;5.63;5.03;;;18.30;99.90;;;;;;5109964;28;20669;-52
2022/09/07 06:04:32;;;;;;;5.40;4.78;;;18.30;99.90;;;;;;5110836;28;20227;-52
2022/09/07 06:07:00;;;;;;;6.03;4.95;;;18.30;99.90;;;;;;5109468;28;20306;-52
2022/09/07 06:09:48;;;;;;;5.70;4.80;;;18.30;99.90;;;;;;5110584;28;20208;-53
2022/09/07 06:12:36;;;;;;;5.25;4.72;;;18.30;99.90;;;;;;5109756;28;20286;-52
2022/09/07 06:15:05;;;;;;;7.18;5.28;;;18.40;99.90;;;;;;5110324;28;20223;-53
2022/09/07 06:17:34;;;;;;;5.80;5.20;;;18.50;99.90;;;;;;5109722;28;20227;-53
2022/09/07 06:20:04;;;;;;;6.03;4.85;;;18.60;99.90;;;;;;5110517;28;20954;-52
2022/09/07 06:22:35;;;;;;;5.47;4.95;;;18.60;99.90;;;;;;5082680;28;20741;-52
2022/09/07 06:25:03;;;;;;;5.75;4.90;;;18.60;99.90;;;;;;5110393;28;20195;-52
2022/09/07 06:27:32;;;;;;;6.43;5.22;;;18.90;99.90;;;;;;5109551;28;20219;-52
2022/09/07 06:30:00;;;;;;;5.82;5.03;;;19.30;99.90;;;;;;5100707;28;20349;-53
2022/09/07 06:32:28;;;;;;;7.97;4.95;;;19.60;99.90;;;;;;5110041;28;20326;-52
2022/09/07 06:35:14;;;;;;;5.57;5.03;;;20.10;99.90;;;;;;5093363;28;20223;-53
2022/09/07 06:37:43;;;;;;;5.40;4.90;;;20.50;99.90;;;;;;5109842;28;20680;-52
2022/09/07 06:40:12;;;;;;;5.30;4.80;;;20.70;99.90;;;;;;5109443;28;20721;-53
2022/09/07 06:42:40;;;;;;;6.40;4.38;;;20.70;99.90;;;;;;5109458;28;20601;-53
2022/09/07 06:45:09;;;;;;;6.82;4.57;;;20.80;99.90;;;;;;5110282;28;20265;-52
2022/09/07 06:47:38;;;;;;;5.82;4.90;;;20.60;99.90;;;;;;5109505;28;20233;-53
2022/09/07 06:50:07;;;;;;;6.32;4.47;;;20.50;99.90;;;;;;5109386;28;20207;-53
2022/09/07 06:52:38;;;;;;;6.47;5.28;;;20.50;99.90;;;;;;5107823;28;20203;-53
2022/09/07 06:55:26;;;;;;;5.50;4.70;;;20.60;99.90;;;;;;5087112;28;20731;-52
2022/09/07 06:57:54;;;;;;;5.07;4.50;;;20.60;99.90;;;;;;5110268;28;20203;-53
2022/09/07 07:00:22;;;;;;;6.55;4.50;;;20.60;99.90;;;;;;5112110;28;20248;-53
2022/09/07 07:02:51;;;;;;;4.78;4.20;;;20.80;99.90;;;;;;5112879;28;20607;-53
2022/09/07 07:05:19;;;;;;;5.35;4.05;;;21.20;99.90;;;;;;5105000;28;20199;-53
2022/09/07 07:07:48;;;;;;;5.32;3.92;;;21.60;99.90;;;;;;5113653;28;20219;-52
2022/09/07 07:10:16;;;;;;;3.97;3.58;;;22.00;99.90;;;;;;5113329;28;20589;-53
2022/09/07 07:12:55;;;;;;;5.82;3.80;;;22.50;99.90;;;;;;5113569;28;20692;-53
2022/09/07 07:15:25;;;;;;;5.40;3.88;;;22.30;99.90;;;;;;5112793;28;20262;-51
2022/09/07 07:17:53;;;;;;;5.10;4.07;;;22.30;99.90;;;;;;5107394;28;20208;-51
2022/09/07 07:20:32;;;;;;;5.70;3.80;;;22.50;99.90;;;;;;5092400;28;20219;-51
2022/09/07 07:23:01;;;;;;;5.22;4.00;;;22.70;99.90;;;;;;5092814;28;20213;-51
2022/09/07 07:25:29;;;;;;;5.05;3.95;;;22.80;99.90;;;;;;5092583;28;20193;-51
2022/09/07 07:27:57;;;;;;;4.47;3.60;;;22.70;99.90;;;;;;5097085;28;20201;-51
2022/09/07 07:30:45;;;;;;;5.30;4.07;;;22.90;99.90;;;;;;5101097;28;20775;-52
2022/09/07 07:33:13;;;;;;;4.25;3.25;;;23.10;99.90;;;;;;5108211;28;20238;-52
2022/09/07 07:35:42;;;;;;;3.95;3.28;;;23.30;99.90;;;;;;5108508;28;20300;-51
2022/09/07 07:38:11;;;;;;;4.55;3.63;;;23.20;99.90;;;;;;5112517;28;20239;-51
2022/09/07 07:40:59;;;;;;;5.22;3.40;;;23.30;99.90;;;;;;5098935;28;20585;-51
2022/09/07 07:43:48;;;;;;;5.95;3.33;;;23.30;99.90;;;;;;5094534;28;20673;-51
2022/09/07 07:46:17;;;;;;;4.45;3.95;;;23.50;99.90;;;;;;5103199;28;20228;-51
2022/09/07 07:48:48;;;;;;;5.75;3.63;;;23.60;99.90;;;;;;5107248;28;20219;-52
2022/09/07 07:51:16;;;;;;;4.20;3.35;;;23.60;99.90;;;;;;5112552;28;20556;-51
2022/09/07 07:53:45;;;;;;;4.55;3.40;;;23.80;99.90;;;;;;5111849;28;20294;-50
2022/09/07 07:56:14;;;;;;;5.40;3.60;;;23.80;99.90;;;;;;5111874;28;20258;-51
2022/09/07 07:58:45;;;;;;;5.57;3.90;;;23.70;99.90;;;;;;5112072;28;20560;-51
2022/09/07 08:01:15;;;;;;;3.90;3.45;;;23.60;99.90;;;;;;5101250;28;20354;-51
2022/09/07 08:03:45;;;;;;;4.20;3.38;;;23.50;99.90;;;;;;5111115;28;20211;-51
2022/09/07 08:06:15;;;;;;;4.65;3.65;;;23.50;99.90;;;;;;5111145;28;20662;-51
2022/09/07 08:08:45;;;;;;;4.07;3.47;;;23.40;99.90;;;;;;5112250;28;20211;-51
2022/09/07 08:11:15;;;;;;;5.00;4.10;;;23.50;99.90;;;;;;5111624;28;20282;-50
2022/09/07 08:13:45;;;;;;;5.10;4.22;;;23.40;99.90;;;;;;5112201;28;20257;-51
2022/09/07 08:16:13;;;;;;;5.25;4.70;;;23.30;99.90;;;;;;5113701;28;20306;-51
2022/09/07 08:18:42;;;;;;;4.90;4.05;;;23.20;99.90;;;;;;5114332;28;20219;-50
2022/09/07 08:21:15;;;;;;;4.45;3.90;;;23.30;99.90;;;;;;5114083;28;20203;-52
2022/09/07 08:23:44;;;;;;;4.03;3.72;;;23.50;99.90;;;;;;5113464;28;20702;-51
2022/09/07 08:26:12;;;;;;;5.38;4.38;;;23.40;99.90;;;;;;5112502;28;20234;-51
2022/09/07 08:28:42;;;;;;;6.45;4.60;;;23.40;99.90;;;;;;5101669;28;20646;-51
2022/09/07 08:31:12;;;;;;;6.43;4.78;;;23.40;99.90;;;;;;5093399;28;20294;-51
2022/09/07 08:33:41;;;;;;;7.55;4.55;;;23.50;99.90;;;;;;5102478;28;20245;-51
2022/09/07 08:36:12;;;;;;;5.90;5.30;;;23.60;99.90;;;;;;5110826;28;20223;-51
2022/09/07 08:38:40;;;;;;;5.20;4.70;;;23.50;99.90;;;;;;5111836;28;20207;-51
2022/09/07 08:41:42;;;;;;;5.00;4.50;;;23.60;99.90;;;;;;5111076;28;20727;-51
2022/09/07 08:44:16;;;;;;;5.10;4.57;;;23.60;99.90;;;;;;5070366;28;20217;-51
2022/09/07 08:46:48;;;;;;;4.70;4.18;;;23.50;99.90;;;;;;5111523;28;20306;-51
2022/09/07 08:49:21;;;;;;;5.13;4.18;;;23.50;99.90;;;;;;5111816;28;20206;-51
2022/09/07 08:51:54;;;;;;;4.50;4.10;;;23.50;99.90;;;;;;5111289;28;20290;-51
2022/09/07 08:54:22;;;;;;;5.78;4.18;;;23.70;99.90;;;;;;5111102;28;20302;-51
2022/09/07 08:56:55;;;;;;;7.28;4.25;;;23.70;99.90;;;;;;5110836;28;20342;-51
2022/09/07 08:59:48;;;;;;;9.88;4.80;;;23.70;99.90;;;;;;5109333;28;20687;-51
2022/09/07 09:02:18;;;;;;;5.85;4.35;;;23.60;99.90;;;;;;5110749;28;20242;-51
2022/09/07 09:05:20;;;;;;;8.27;4.72;;;23.60;99.90;;;;;;5111162;28;20204;-50
2022/09/07 09:08:03;;;;;;;5.65;4.22;;;23.70;99.90;;;;;;5096488;28;20212;-51
2022/09/07 09:10:40;;;;;;;5.40;4.50;;;23.70;99.90;;;;;;5111033;28;20226;-50
2022/09/07 09:13:17;;;;;;;7.32;4.32;;;23.70;99.90;;;;;;5110482;28;20290;-52
2022/09/07 09:15:52;;;;;;;7.38;4.85;;;23.80;99.90;;;;;;5110626;28;20258;-51
2022/09/07 09:18:35;;;;;;;6.93;4.43;;;23.90;99.90;;;;;;5110497;28;20203;-51
2022/09/07 09:21:06;;;;;;;7.55;5.03;;;23.80;99.90;;;;;;5110856;28;20209;-51
2022/09/07 09:23:39;;;;;;;7.65;4.82;;;23.80;99.90;;;;;;5110216;28;20235;-51
2022/09/07 09:26:13;;;;;;;7.15;4.70;;;23.80;99.90;;;;;;5110469;28;20326;-52
2022/09/07 09:28:42;;;;;;;6.97;4.57;;;23.90;99.90;;;;;;5101073;28;20204;-51
2022/09/07 09:31:18;;;;;;;6.63;4.20;;;24.00;99.90;;;;;;5083206;28;20752;-51
2022/09/07 09:34:07;;;;;;;5.07;4.38;;;24.10;99.90;;;;;;5100426;28;20204;-52
2022/09/07 09:36:41;;;;;;;6.88;4.55;;;24.10;99.90;;;;;;5088508;28;20314;-51
2022/09/07 09:39:26;;;;;;;5.82;4.05;;;24.10;99.90;;;;;;5080125;28;20287;-51
2022/09/07 09:41:58;;;;;;;5.88;4.40;;;23.90;99.90;;;;;;5096242;28;20211;-51
2022/09/07 09:44:32;;;;;;;8.30;4.78;;;24.00;99.90;;;;;;5108073;28;20287;-50
2022/09/07 09:47:02;;;;;;;5.72;4.47;;;24.10;99.90;;;;;;5088801;28;20307;-52
2022/09/07 09:49:52;;;;;;;6.20;4.70;;;24.10;99.90;;;;;;5085015;28;20214;-50
2022/09/07 09:52:23;;;;;;;7.55;4.63;;;24.10;99.90;;;;;;5109481;28;20639;-51
2022/09/07 09:54:57;;;;;;;5.10;3.53;;;24.10;99.90;;;;;;5102142;28;20243;-51
2022/09/07 09:57:51;;;;;;;6.22;4.05;;;24.30;99.90;;;;;;5106656;28;20215;-51
2022/09/07 10:00:55;;;;;;;4.57;3.28;;;24.40;99.90;;;;;;5097564;28;20215;-51
2022/09/07 10:03:43;;;;;;;5.63;3.60;;;24.40;99.90;;;;;;5090990;28;20210;-51
2022/09/07 10:06:31;;;;;;;3.90;3.20;;;24.40;99.90;;;;;;5108978;28;20220;-51
2022/09/07 10:09:01;;;;;;;5.32;4.05;;;24.40;99.90;;;;;;5102207;28;20199;-51
2022/09/07 10:11:44;;;;;;;4.85;3.10;;;24.50;99.90;;;;;;5110277;28;20234;-51
2022/09/07 10:14:35;;;;;;;4.93;3.58;;;24.60;99.90;;;;;;5109768;28;20218;-51
2022/09/07 10:17:24;;;;;;;6.53;4.00;;;24.80;99.90;;;;;;5109725;28;20318;-51
2022/09/07 10:19:53;;;;;;;4.93;3.15;;;24.60;99.90;;;;;;5103279;28;20680;-51
2022/09/07 10:22:24;;;;;;;4.85;3.65;;;24.60;99.90;;;;;;5109698;28;20208;-51
2022/09/07 10:24:52;;;;;;;5.30;3.80;;;24.70;99.90;;;;;;5108713;28;20299;-51
2022/09/07 10:27:30;;;;;;;4.03;3.63;;;24.80;99.90;;;;;;5108908;28;20221;-51
2022/09/07 10:29:58;;;;;;;3.90;3.08;;;24.90;99.90;;;;;;5109467;28;20660;-50
2022/09/07 10:32:50;;;;;;;4.00;3.20;;;24.80;99.90;;;;;;5109464;28;20246;-51
2022/09/07 10:35:25;;;;;;;3.85;3.10;;;24.90;99.90;;;;;;5094400;28;20238;-51
2022/09/07 10:38:03;;;;;;;3.70;3.03;;;24.70;99.90;;;;;;5109554;28;20283;-51
2022/09/07 10:40:34;;;;;;;4.80;3.28;;;24.80;99.90;;;;;;5108785;28;20231;-51
2022/09/07 10:43:15;;;;;;;4.95;3.10;;;24.90;99.90;;;;;;5107611;28;20230;-51
2022/09/07 10:46:10;;;;;;;3.80;2.88;;;25.00;99.90;;;;;;5104798;28;20219;-51
2022/09/07 10:48:52;;;;;;;3.80;2.78;;;25.20;99.90;;;;;;5089197;28;20211;-51
2022/09/07 10:51:28;;;;;;;3.15;2.58;;;25.20;99.90;;;;;;5109594;28;20303;-51
2022/09/07 10:54:05;;;;;;;4.45;2.90;;;25.20;99.90;;;;;;5110528;28;20217;-51
2022/09/07 10:57:02;;;;;;;3.05;2.72;;;25.20;99.90;;;;;;5107770;28;20234;-51
2022/09/07 10:59:41;;;;;;;4.03;2.70;;;25.30;99.90;;;;;;5109769;28;20605;-51
2022/09/07 11:02:39;;;;;;;5.45;2.47;;;25.30;99.90;;;;;;5109334;28;20215;-51
2022/09/07 11:05:22;;;;;;;2.58;2.38;;;25.30;99.90;;;;;;5109462;28;20206;-51
2022/09/07 11:08:04;;;;;;;2.90;1.98;;;25.50;99.90;;;;;;5109237;28;20218;-51
2022/09/07 11:10:40;;;;;;;4.40;2.47;;;25.70;99.90;;;;;;5108948;28;20245;-51
2022/09/07 11:13:14;;;;;;;3.35;2.55;;;25.70;99.90;;;;;;5109094;28;20247;-51
2022/09/07 11:15:45;;;;;;;2.60;2.40;;;25.70;99.90;;;;;;5108994;28;20746;-50
2022/09/07 11:18:19;;;;;;;2.78;2.20;;;25.60;99.90;;;;;;5109353;28;20224;-51
2022/09/07 11:20:54;;;;;;;3.90;2.30;;;25.60;99.90;;;;;;5109300;28;20208;-51
2022/09/07 11:23:26;;;;;;;3.97;2.55;;;25.60;99.90;;;;;;5108758;28;20213;-51
2022/09/07 11:26:02;;;;;;;5.90;2.50;;;25.70;99.90;;;;;;5108345;28;20266;-51
2022/09/07 11:28:43;;;;;;;4.72;2.35;;;25.80;99.90;;;;;;5100611;28;20200;-51
2022/09/07 11:31:19;;;;;;;4.20;2.38;;;25.70;99.90;;;;;;5082476;28;20199;-52
2022/09/07 11:33:57;;;;;;;3.88;2.45;;;25.50;99.90;;;;;;5097891;28;20243;-51
2022/09/07 11:36:57;;;;;;;3.33;2.38;;;25.40;99.90;;;;;;5089771;28;20231;-51
2022/09/07 11:39:34;;;;;;;3.53;2.33;;;25.50;99.90;;;;;;5112038;28;20314;-52
2022/09/07 11:42:05;;;;;;;3.83;2.33;;;25.50;99.90;;;;;;5112933;28;20231;-51
2022/09/07 11:44:59;;;;;;;4.22;2.30;;;25.50;99.90;;;;;;5101833;28;20210;-51
2022/09/07 11:47:33;;;;;;;3.65;2.15;;;25.60;99.90;;;;;;5112772;28;20258;-52
2022/09/07 11:50:01;;;;;;;4.57;2.50;;;25.70;99.90;;;;;;5112573;28;20202;-51
2022/09/07 11:52:37;;;;;;;4.43;2.42;;;25.80;99.90;;;;;;5112724;28;20238;-51
2022/09/07 11:55:10;;;;;;;5.95;2.50;;;25.90;99.90;;;;;;5087249;28;20671;-50
2022/09/07 11:57:56;;;;;;;2.60;2.38;;;26.10;99.90;;;;;;5111761;28;20676;-51
2022/09/07 12:00:32;;;;;;;3.25;2.53;;;26.30;99.90;;;;;;5097429;28;20200;-52
2022/09/07 12:03:17;;;;;;;3.33;2.30;;;26.30;99.90;;;;;;5091535;28;20699;-51
2022/09/07 12:06:31;;;;;;;7.43;2.90;;;26.40;99.90;;;;;;5092293;28;20224;-51
2022/09/07 12:09:15;;;;;;;4.43;2.15;;;26.30;99.90;;;;;;5091755;28;20292;-51
2022/09/07 12:12:11;;;;;;;4.38;2.28;;;26.40;99.90;;;;;;5091799;28;20231;-52
2022/09/07 12:14:52;;;;;;;3.08;2.20;;;26.30;99.90;;;;;;5091707;28;20216;-52
2022/09/07 12:17:31;;;;;;;3.40;2.10;;;26.40;99.90;;;;;;5091791;28;20264;-52
2022/09/07 12:20:14;;;;;;;2.83;2.10;;;26.60;99.90;;;;;;5091568;28;20239;-51
2022/09/07 12:23:01;;;;;;;3.38;2.38;;;26.80;99.90;;;;;;5091700;28;20200;-51
2022/09/07 12:25:34;;;;;;;4.30;1.80;;;26.90;99.90;;;;;;5090929;28;20212;-51
2022/09/07 12:28:03;;;;;;;2.85;2.05;;;26.80;99.90;;;;;;5096696;28;20224;-52
2022/09/07 12:30:56;;;;;;;4.03;2.10;;;26.80;99.90;;;;;;5106953;28;20210;-51
2022/09/07 12:33:35;;;;;;;2.97;1.73;;;27.00;99.90;;;;;;5105764;28;20219;-52
2022/09/07 12:36:34;;;;;;;4.25;1.88;;;27.10;99.90;;;;;;5087359;28;20219;-51
2022/09/07 12:39:19;;;;;;;5.25;2.20;;;27.10;99.90;;;;;;5089156;28;20233;-50
2022/09/07 12:41:52;;;;;;;3.17;2.13;;;27.10;99.90;;;;;;5109151;28;20991;-52
2022/09/07 12:44:41;;;;;;;3.35;2.30;;;26.90;99.90;;;;;;5111116;28;20680;-51
2022/09/07 12:47:28;;;;;;;2.92;2.08;;;27.00;99.90;;;;;;5111592;28;20228;-51
2022/09/07 12:50:16;;;;;;;3.95;2.10;;;26.80;99.90;;;;;;5111151;28;20691;-51
2022/09/07 12:53:06;;;;;;;3.45;2.10;;;26.60;99.90;;;;;;5111175;28;20287;-51
2022/09/07 12:55:52;;;;;;;2.28;1.90;;;26.40;99.90;;;;;;5088600;28;20295;-51
2022/09/07 12:58:55;;;;;;;7.88;2.63;;;26.30;99.90;;;;;;5085438;28;20220;-51
2022/09/07 13:01:45;;;;;;;5.00;2.70;;;26.20;99.90;;;;;;5089673;28;20204;-51
2022/09/07 13:04:45;;;;;;;4.38;2.63;;;26.20;99.90;;;;;;5090417;28;20204;-52
2022/09/07 13:07:56;;;;;;;4.47;2.63;;;26.20;99.90;;;;;;5070150;28;20263;-50
2022/09/07 13:10:36;;;;;;;2.75;2.20;;;26.20;99.90;;;;;;5089923;28;20292;-52
2022/09/07 13:13:06;;;;;;;3.03;2.20;;;26.40;99.90;;;;;;5090038;28;20281;-52
2022/09/07 13:15:46;;;;;;;2.83;2.20;;;26.50;99.90;;;;;;5089665;28;20251;-51
2022/09/07 13:18:40;;;;;;;4.15;2.10;;;26.50;99.90;;;;;;5080192;28;20236;-51
2022/09/07 13:21:47;;;;;;;3.47;2.45;;;26.60;99.90;;;;;;5085462;28;20236;-50
2022/09/07 13:24:54;;;;;;;3.15;2.05;;;26.60;99.90;;;;;;5080317;28;20236;-51
2022/09/07 13:27:41;;;;;;;2.58;1.92;;;26.60;99.90;;;;;;5083247;28;20306;-51